Address 0xf49d1a961db54f95361acd6b57411613749a9fd8

 
 
Txn Hash Method
Block
From
To
Value [Txn Fee]
0xef7a368f66e0e0f6a80491f1562b6f0678405a90ebd05e448c9602cbd9baaabd0x1de9c881118766362021-10-18 9:54:152 mins ago0xf49d1a961db54f95361acd6b57411613749a9fd8OUT 0xe0029f4946ab8b88d8120e86ed92631202ca6fb00 BNB0.00019319
0xd5a56ff8361138656fa94cac93836ae2611097e29bfcfd060c9972c2de5bdb360x1de9c881118764122021-10-18 9:43:0313 mins ago0xf49d1a961db54f95361acd6b57411613749a9fd8OUT 0xe0029f4946ab8b88d8120e86ed92631202ca6fb00 BNB0.000220517982
0xae798a94cd6d1a63318603865116dc435563a5eec4e204dc23fc23b18ae4ef670x1de9c881118763262021-10-18 9:38:4517 mins ago0xf49d1a961db54f95361acd6b57411613749a9fd8OUT 0xe0029f4946ab8b88d8120e86ed92631202ca6fb00 BNB0.000211785
0x431b200755177d935375d68123aa5670949b785bb092cd6457b2cc96ef052b730x1de9c881118762932021-10-18 9:37:0619 mins ago0xf49d1a961db54f95361acd6b57411613749a9fd8OUT 0xe0029f4946ab8b88d8120e86ed92631202ca6fb00 BNB0.000212015
0x3bee97ef7badda2b4c5d1cf376c38717cd69f561a659151872433556ab14908f0x1de9c881118762742021-10-18 9:36:0920 mins ago0xf49d1a961db54f95361acd6b57411613749a9fd8OUT 0xe0029f4946ab8b88d8120e86ed92631202ca6fb00 BNB0.000212015
0x5aa3c6268dd08b473a8221a5dab7eade613d0bc385a5ec6f33d90fe2cd8c1efe0x1de9c881118758952021-10-18 9:17:1139 mins ago0xf49d1a961db54f95361acd6b57411613749a9fd8OUT 0xe0029f4946ab8b88d8120e86ed92631202ca6fb00 BNB0.00018402
0xb80e6113562d49b51936629d30f06ea318063329988aa66bc8e53d7d6764bfc00x1de9c881118756692021-10-18 9:05:5350 mins ago0xf49d1a961db54f95361acd6b57411613749a9fd8OUT 0xe0029f4946ab8b88d8120e86ed92631202ca6fb00 BNB0.000221205
0x60bca6b01e13f8e00ae27b9182966c9ec6b4fc7db5934b7745ac4f9363c4d43b0x1de9c881118746632021-10-18 8:15:321 hr 41 mins ago0xf49d1a961db54f95361acd6b57411613749a9fd8OUT 0xe0029f4946ab8b88d8120e86ed92631202ca6fb00 BNB0.000220330552
0x52fc053d45ad04f637d0403848c6676f00f3dffc59d8d549902295882cc854460x1de9c881118746352021-10-18 8:14:081 hr 42 mins ago0xf49d1a961db54f95361acd6b57411613749a9fd8OUT 0xe0029f4946ab8b88d8120e86ed92631202ca6fb00 BNB0.000322259
0x75248937e998194c02002100814ccd3bcf0873630f6fc3c76ce21edee801586a0x1de9c881118746222021-10-18 8:13:291 hr 43 mins ago0xf49d1a961db54f95361acd6b57411613749a9fd8OUT 0xe0029f4946ab8b88d8120e86ed92631202ca6fb00 BNB0.000265218
0xc9fc5b31132346f8c2291980d76e5a61c144c436005046a84f551e9db6eb9343Transfer118745462021-10-18 8:09:411 hr 46 mins ago0x85b45a95155ca55ab95a14acd10637a599b27d77 IN 0xf49d1a961db54f95361acd6b57411613749a9fd80.125044566998654 BNB0.000105
0x999df9b9b5768d2aa2d643d93600ae79f2f698c2653403c873a4a8233e1f5b6d0x1de9c881118745072021-10-18 8:07:441 hr 48 mins ago0xf49d1a961db54f95361acd6b57411613749a9fd8OUT 0xe0029f4946ab8b88d8120e86ed92631202ca6fb00 BNB0.001472582171
0x0f2c11726892b7124116949c0227ef803c088085b0040183d9b166a3e566ce350x1de9c881118735282021-10-18 7:18:472 hrs 37 mins ago0xf49d1a961db54f95361acd6b57411613749a9fd8OUT 0xe0029f4946ab8b88d8120e86ed92631202ca6fb00 BNB0.00021248
0xf1bbf963f532f91e03c6ca72584be5bc3ce752b20978088caae52d9fadbc450a0x1de9c881118734692021-10-18 7:15:502 hrs 40 mins ago0xf49d1a961db54f95361acd6b57411613749a9fd8OUT 0xe0029f4946ab8b88d8120e86ed92631202ca6fb00 BNB0.00018402
0xb0e2953a77f59bd7634948fb972641e9caf864a8ff26c134a8ed07e7730c0fdd0x1de9c881118733522021-10-18 7:09:592 hrs 46 mins ago0xf49d1a961db54f95361acd6b57411613749a9fd8OUT 0xe0029f4946ab8b88d8120e86ed92631202ca6fb00 BNB0.0002162757
0x86c0890472c8bc2c107abe7e63c9b520308e732fcda41ea294d177b74185d9380x1de9c881118729562021-10-18 6:50:113 hrs 6 mins ago0xf49d1a961db54f95361acd6b57411613749a9fd8OUT 0xe0029f4946ab8b88d8120e86ed92631202ca6fb00 BNB0.000211915
0x54608b6a8ef5c13d8752d4026b89fdb22b2760a62a1699bee418dfedb0d82fb90x1de9c881118729222021-10-18 6:48:293 hrs 8 mins ago0xf49d1a961db54f95361acd6b57411613749a9fd8OUT 0xe0029f4946ab8b88d8120e86ed92631202ca6fb00 BNB0.000203215
0xf65be245e33964d1c511bb3da4fe67db79edb309bbc923efa4d10af7b7fd31d20x1de9c881118728192021-10-18 6:43:203 hrs 13 mins ago0xf49d1a961db54f95361acd6b57411613749a9fd8OUT 0xe0029f4946ab8b88d8120e86ed92631202ca6fb00 BNB0.00022119
0x1b2bb39470c491b2b09a8969ca437d3cb927f88a3ea061d64dde6e6c0e92912c0x1de9c881118726782021-10-18 6:36:173 hrs 20 mins ago0xf49d1a961db54f95361acd6b57411613749a9fd8OUT 0xe0029f4946ab8b88d8120e86ed92631202ca6fb00 BNB0.00044273
0x208f30ae265824cac81c9f48ae809d21304c661fa8f6e4acf02237a54e4378170x1de9c881118725712021-10-18 6:30:563 hrs 25 mins ago0xf49d1a961db54f95361acd6b57411613749a9fd8OUT 0xe0029f4946ab8b88d8120e86ed92631202ca6fb00 BNB0.000225043055
0x4ee52d6a63d7313cf0395ccbeeb2d37ceeb77e49b37a59b4df9979b60428c4030x1de9c881118723962021-10-18 6:22:113 hrs 34 mins ago0xf49d1a961db54f95361acd6b57411613749a9fd8OUT 0xe0029f4946ab8b88d8120e86ed92631202ca6fb00 BNB0.000211915
0xe9b7930ffd908490d26ce0fb1ef29b55c3f9e5f43a279e2177d1ae75663f5b5a0x1de9c881118719322021-10-18 5:58:593 hrs 57 mins ago0xf49d1a961db54f95361acd6b57411613749a9fd8OUT 0xe0029f4946ab8b88d8120e86ed92631202ca6fb00 BNB0.000211915
0x29e98ccc5bac95f6b3d5a8a0c019039478957fbc736f1e8040a4e8031a2711860x1de9c881118717062021-10-18 5:47:414 hrs 8 mins ago0xf49d1a961db54f95361acd6b57411613749a9fd8OUT 0xe0029f4946ab8b88d8120e86ed92631202ca6fb00 BNB0.000184195
0x01375f610d2282be5b0d10172b4ec0ab61213b58e5831705e07a98a56c9dc8820x1de9c881118713792021-10-18 5:31:194 hrs 25 mins ago0xf49d1a961db54f95361acd6b57411613749a9fd8OUT 0xe0029f4946ab8b88d8120e86ed92631202ca6fb00 BNB0.000184425
0x09dd7506aa0b96827c2607ecca30a95bbcdda113774339e65040f83ec8b1237f0x1de9c881118712262021-10-18 5:23:404 hrs 32 mins ago0xf49d1a961db54f95361acd6b57411613749a9fd8OUT 0xe0029f4946ab8b88d8120e86ed92631202ca6fb00 BNB0.000405482
[ Download CSV Export 
Parent Txn Hash Block From To Value
Loading

Contract Name:
0 BNB

Compiler Version
0

Optimization Enabled:
0 BNB

Other Settings:
-NA-
Block Transaction Gas Used Reward
Age Block Fee Address BC Fee Address Voting Power Jailed Incoming
Block Uncle Number Difficulty Gas Used Reward
Loading
Loading
Make sure to use the "Vote Down" button for any spammy posts, and the "Vote Up" for interesting conversations.